Time;durP1;ratioP1;P1;durP2;ratioP2;P2;SDS_P1;SDS_P2;PMS_P1;PMS_P2;Temp;Humidity;BMP_temperature;BMP_pressure;BME280_temperature;BME280_humidity;BME280_pressure;Samples;Min_cycle;Max_cycle;Signal;HPM_P1;HPM_P2
2024/01/31 09:21:57;;;;;;;15.27;10.13;;;;;;;7.70;100.00;100577.88;5109204;28;20513;-87
2024/01/31 09:24:25;;;;;;;16.77;10.20;;;;;;;8.57;100.00;100578.34;5108420;28;39163;-87
2024/01/31 09:26:53;;;;;;;11.53;8.80;;;;;;;9.50;100.00;100575.69;5091130;28;41686;-86
2024/01/31 09:29:20;;;;;;;12.03;9.17;;;;;;;10.10;100.00;100578.16;5108384;28;41419;-87
2024/01/31 09:31:48;;;;;;;10.93;8.80;;;;;;;10.57;100.00;100573.91;5091278;28;43406;-89
2024/01/31 09:34:15;;;;;;;11.63;8.50;;;;;;;11.04;98.35;100585.47;5108668;28;41130;-86
2024/01/31 09:36:45;;;;;;;10.87;8.20;;;;;;;11.28;95.48;100588.97;5090839;28;42583;-84
2024/01/31 09:39:14;;;;;;;11.13;8.37;;;;;;;11.63;92.27;100603.53;5091503;28;43075;-87
2024/01/31 09:41:42;;;;;;;10.83;8.03;;;;;;;11.94;91.12;100597.06;5091116;28;41188;-86
2024/01/31 09:44:10;;;;;;;11.30;8.23;;;;;;;12.10;89.02;100596.41;5091688;28;39286;-87
2024/01/31 09:46:40;;;;;;;10.57;7.17;;;;;;;12.39;87.62;100618.22;5090768;28;40826;-85
2024/01/31 09:49:08;;;;;;;10.10;7.20;;;;;;;12.47;86.15;100614.31;5090603;28;44677;-87
2024/01/31 09:51:37;;;;;;;10.97;6.77;;;;;;;12.51;85.17;100602.63;5108100;28;42184;-87
2024/01/31 09:54:08;;;;;;;7.97;6.67;;;;;;;12.49;83.81;100587.66;5090810;28;40123;-87
2024/01/31 09:56:38;;;;;;;7.87;5.77;;;;;;;12.77;83.15;100613.91;5090898;28;40755;-88
2024/01/31 09:59:05;;;;;;;8.07;6.33;;;;;;;12.83;82.05;100625.16;5090708;28;41904;-88
2024/01/31 10:01:34;;;;;;;8.17;5.67;;;;;;;12.82;81.09;100609.28;5090802;28;41493;-87
2024/01/31 10:04:02;;;;;;;7.67;5.97;;;;;;;12.99;80.60;100620.03;5090568;28;39135;-88
2024/01/31 10:06:30;;;;;;;8.63;6.73;;;;;;;13.04;79.43;100612.72;5090662;28;40899;-88
2024/01/31 10:08:58;;;;;;;8.90;6.93;;;;;;;13.15;79.20;100625.56;5090813;28;43322;-89
2024/01/31 10:11:27;;;;;;;7.93;5.77;;;;;;;13.21;78.45;100610.19;5090702;28;41137;-89
2024/01/31 10:13:56;;;;;;;8.33;6.50;;;;;;;13.27;78.59;100615.22;5091099;28;39610;-86
2024/01/31 10:16:24;;;;;;;8.80;6.13;;;;;;;13.39;77.50;100634.22;5090443;28;41710;-88
2024/01/31 10:18:51;;;;;;;7.23;5.90;;;;;;;13.47;76.93;100626.78;5090572;28;44788;-88
2024/01/31 10:21:20;;;;;;;9.13;5.90;;;;;;;13.67;76.99;100629.38;5088407;28;41483;-89
2024/01/31 10:23:56;;;;;;;8.10;6.30;;;;;;;13.74;75.17;100609.50;5089420;28;38594;-88
2024/01/31 10:26:25;;;;;;;6.47;5.73;;;;;;;13.89;74.31;100624.75;5089153;28;41363;-88
2024/01/31 10:28:53;;;;;;;6.53;5.70;;;;;;;14.13;73.24;100633.34;5089523;28;42990;-88
2024/01/31 10:31:22;;;;;;;6.30;5.70;;;;;;;14.30;72.69;100612.06;5086320;28;41547;-88
2024/01/31 10:33:50;;;;;;;6.10;4.70;;;;;;;14.48;72.22;100607.63;5075574;28;38761;-86
2024/01/31 10:36:20;;;;;;;6.33;5.27;;;;;;;14.77;72.16;100618.63;5075553;28;42384;-86
2024/01/31 10:38:47;;;;;;;7.53;5.10;;;;;;;14.90;70.67;100622.38;5075043;28;44298;-88
2024/01/31 10:41:19;;;;;;;6.70;4.67;;;;;;;14.99;69.30;100608.56;5075312;28;40968;-88
2024/01/31 10:43:49;;;;;;;6.20;4.43;;;;;;;15.27;68.25;100613.28;5075646;28;40307;-89
2024/01/31 10:46:17;;;;;;;5.83;4.33;;;;;;;15.37;67.23;100609.16;5075832;28;40880;-90
2024/01/31 10:48:46;;;;;;;6.40;4.43;;;;;;;15.75;66.29;100620.47;5075694;28;43029;-91
2024/01/31 10:51:14;;;;;;;6.47;4.50;;;;;;;15.95;64.89;100609.50;5075354;28;41020;-90
2024/01/31 10:53:43;;;;;;;6.70;4.33;;;;;;;15.99;63.95;100608.38;5075729;28;39159;-90
2024/01/31 10:56:12;;;;;;;4.57;3.73;;;;;;;16.35;63.08;100620.59;5075187;28;40869;-90
2024/01/31 10:58:40;;;;;;;6.37;4.10;;;;;;;16.78;60.51;100614.47;5075327;28;41973;-89
2024/01/31 11:01:12;;;;;;;5.33;4.03;;;;;;;17.19;57.39;100613.72;5075389;28;42481;-89
2024/01/31 11:03:46;;;;;;;6.07;4.07;;;;;;;17.38;56.48;100630.41;5075665;28;39251;-90
2024/01/31 11:06:14;;;;;;;5.33;4.10;;;;;;;17.56;53.63;100639.94;5076318;28;43319;-89
2024/01/31 11:08:44;;;;;;;6.10;4.20;;;;;;;17.81;52.95;100647.31;5093606;28;43211;-93
2024/01/31 11:11:11;;;;;;;4.87;3.93;;;;;;;17.81;54.03;100633.06;5076125;28;41928;-87
2024/01/31 11:13:39;;;;;;;6.70;4.13;;;;;;;17.53;53.12;100613.38;5076559;28;40722;-89
2024/01/31 11:16:07;;;;;;;5.67;4.50;;;;;;;17.53;53.16;100623.22;5075952;28;42106;-89
2024/01/31 11:18:37;;;;;;;5.83;4.50;;;;;;;17.43;52.92;100633.63;5075739;28;43313;-93
2024/01/31 11:21:10;;;;;;;5.27;4.30;;;;;;;17.32;52.58;100652.19;5074980;28;41169;-88
2024/01/31 11:23:39;;;;;;;6.20;4.07;;;;;;;17.15;53.71;100622.94;5076025;28;39306;-89
2024/01/31 11:26:07;;;;;;;5.00;4.20;;;;;;;17.10;52.87;100625.00;5075718;28;41073;-90
2024/01/31 11:28:41;;;;;;;5.27;4.37;;;;;;;16.97;53.42;100613.34;5076656;28;43772;-92
2024/01/31 11:31:09;;;;;;;5.60;4.23;;;;;;;16.86;53.17;100616.66;5077936;28;40793;-90
2024/01/31 11:33:40;;;;;;;4.27;3.77;;;;;;;16.70;54.04;100603.34;5078418;28;39390;-91
2024/01/31 11:36:14;;;;;;;6.63;5.07;;;;;;;16.64;52.75;100606.41;5080841;28;41125;-92
2024/01/31 11:38:41;;;;;;;6.07;4.27;;;;;;;16.52;53.62;100591.03;5082485;28;42999;-92
2024/01/31 11:41:09;;;;;;;5.47;4.10;;;;;;;16.37;53.41;100584.78;5080492;28;42434;-90
2024/01/31 11:43:37;;;;;;;6.10;3.73;;;;;;;16.42;53.10;100592.53;5074978;28;39071;-90
2024/01/31 11:46:05;;;;;;;6.13;3.73;;;;;;;16.23;51.13;100589.22;5080432;28;41887;-89
2024/01/31 11:48:33;;;;;;;6.30;3.80;;;;;;;16.31;52.49;100617.25;5087178;28;43224;-88
2024/01/31 11:51:00;;;;;;;5.53;3.87;;;;;;;16.28;52.79;100619.22;5086182;28;40838;-89
2024/01/31 11:53:29;;;;;;;4.53;3.63;;;;;;;16.21;53.48;100613.34;5086225;28;41054;-89
2024/01/31 11:55:57;;;;;;;7.13;3.77;;;;;;;16.04;53.39;100609.00;5086360;28;40704;-87
2024/01/31 11:58:25;;;;;;;5.37;3.90;;;;;;;15.93;54.10;100598.06;5085122;28;44595;-88
2024/01/31 12:00:52;;;;;;;6.53;4.23;;;;;;;15.86;54.12;100591.31;5084212;28;41133;-87
2024/01/31 12:03:20;;;;;;;6.87;4.20;;;;;;;15.87;54.02;100608.22;5074932;28;40075;-87
2024/01/31 12:05:56;;;;;;;4.73;3.83;;;;;;;15.69;54.08;100581.59;5074800;28;43773;-87
2024/01/31 12:08:27;;;;;;;6.70;3.80;;;;;;;15.66;53.72;100588.91;5075301;28;41731;-87
2024/01/31 12:10:56;;;;;;;4.37;3.30;;;;;;;15.76;54.00;100606.16;5075057;28;42395;-87
2024/01/31 12:13:23;;;;;;;4.17;3.60;;;;;;;15.56;54.42;100577.03;5075031;28;39296;-87
2024/01/31 12:15:51;;;;;;;4.57;3.47;;;;;;;15.56;53.89;100593.91;5075078;28;40866;-87
2024/01/31 12:18:19;;;;;;;4.93;3.47;;;;;;;15.50;54.42;100588.88;5091461;28;41771;-87
2024/01/31 12:20:46;;;;;;;4.83;3.63;;;;;;;15.42;54.38;100586.63;5074143;28;41227;-87
2024/01/31 12:23:14;;;;;;;3.83;3.13;;;;;;;15.41;54.18;100587.56;5074660;28;39935;-87
2024/01/31 12:25:41;;;;;;;3.87;3.00;;;;;;;15.29;54.59;100564.22;5074933;28;40876;-88
2024/01/31 12:28:11;;;;;;;5.73;3.53;;;;;;;15.36;54.59;100570.06;5074645;28;42159;-87
2024/01/31 12:30:38;;;;;;;5.43;2.93;;;;;;;15.34;54.45;100572.81;5074473;28;41638;-87
2024/01/31 12:33:06;;;;;;;4.37;3.50;;;;;;;15.20;54.35;100559.38;5091790;28;40463;-88
2024/01/31 12:35:33;;;;;;;4.77;3.70;;;;;;;15.23;54.23;100585.88;5074842;28;41085;-87
2024/01/31 12:38:01;;;;;;;2.80;2.60;;;;;;;15.28;54.72;100588.31;5074332;28;42789;-90
2024/01/31 12:40:28;;;;;;;4.60;2.90;;;;;;;15.25;54.67;100586.69;5074377;28;42598;-87
2024/01/31 12:43:04;;;;;;;2.80;2.47;;;;;;;15.15;54.48;100566.78;5074631;28;40509;-89
2024/01/31 12:45:33;;;;;;;3.27;2.20;;;;;;;15.27;54.48;100567.91;5074590;28;42350;-87
2024/01/31 12:48:01;;;;;;;4.13;2.87;;;;;;;15.27;54.08;100560.75;5074530;28;42222;-89
2024/01/31 12:50:29;;;;;;;3.37;2.63;;;;;;;15.20;53.67;100540.72;5076220;28;41078;-88
2024/01/31 12:52:56;;;;;;;2.90;2.40;;;;;;;15.34;54.03;100543.44;5074297;28;40053;-88
2024/01/31 12:55:23;;;;;;;4.77;2.90;;;;;;;15.45;53.24;100543.72;5073654;28;42229;-88
2024/01/31 12:57:52;;;;;;;3.20;2.37;;;;;;;15.52;52.80;100524.69;5074530;28;41810;-86
2024/01/31 13:00:20;;;;;;;4.13;2.53;;;;;;;15.60;51.94;100512.66;5073782;28;41445;-87
2024/01/31 13:02:49;;;;;;;3.33;2.30;;;;;;;15.75;52.17;100529.63;5090831;28;40022;-87
2024/01/31 13:05:17;;;;;;;5.80;2.53;;;;;;;15.76;52.17;100534.03;5073652;28;40673;-88
2024/01/31 13:07:46;;;;;;;7.37;2.77;;;;;;;15.71;51.48;100522.72;5071365;28;44569;-89
2024/01/31 13:10:15;;;;;;;4.20;2.40;;;;;;;15.65;51.35;100525.75;5091276;28;43257;-89
2024/01/31 13:12:43;;;;;;;4.53;2.70;;;;;;;15.55;51.76;100521.91;5072999;28;39035;-87
2024/01/31 13:15:10;;;;;;;5.73;2.67;;;;;;;15.45;51.65;100521.53;5073020;28;43366;-87
2024/01/31 13:17:38;;;;;;;3.47;2.77;;;;;;;15.29;51.31;100509.97;5073523;28;42103;-87
2024/01/31 13:20:09;;;;;;;2.90;2.50;;;;;;;15.32;52.01;100507.13;5087178;28;42510;-86
2024/01/31 13:22:37;;;;;;;5.10;2.70;;;;;;;15.23;52.06;100495.13;5071384;28;39177;-88
2024/01/31 13:25:06;;;;;;;3.03;2.80;;;;;;;15.16;51.66;100496.44;5071594;28;41270;-87
2024/01/31 13:27:33;;;;;;;4.40;2.30;;;;;;;15.19;51.96;100493.59;5072234;28;43370;-88
2024/01/31 13:30:01;;;;;;;2.80;2.50;;;;;;;15.08;50.91;100480.00;5071747;28;44058;-85
2024/01/31 13:32:29;;;;;;;3.70;2.23;;;;;;;15.25;50.68;100495.91;5070785;28;38948;-85
2024/01/31 13:34:56;;;;;;;3.57;2.40;;;;;;;15.22;51.52;100489.88;5071274;28;42618;-86
2024/01/31 13:37:25;;;;;;;3.33;2.40;;;;;;;15.20;51.35;100473.13;5071977;28;43946;-87
2024/01/31 13:39:53;;;;;;;3.83;2.70;;;;;;;15.16;51.48;100468.88;5071509;28;41301;-86
2024/01/31 13:42:20;;;;;;;4.33;2.70;;;;;;;15.19;51.79;100455.38;5071638;28;39489;-83
2024/01/31 13:44:48;;;;;;;3.07;2.57;;;;;;;15.22;52.09;100445.38;5071412;28;42592;-86
2024/01/31 13:47:16;;;;;;;3.80;3.10;;;;;;;15.30;51.48;100456.50;5071767;28;42468;-88
2024/01/31 13:49:45;;;;;;;4.57;2.93;;;;;;;15.29;51.28;100446.75;5071472;28;41378;-86
2024/01/31 13:52:13;;;;;;;2.90;2.60;;;;;;;15.16;51.05;100423.50;5070991;28;40856;-88
2024/01/31 13:54:42;;;;;;;3.77;2.63;;;;;;;15.30;51.17;100447.63;5071607;28;42360;-86
2024/01/31 13:57:10;;;;;;;3.50;2.73;;;;;;;15.23;50.77;100447.09;5071079;28;42891;-90
2024/01/31 13:59:37;;;;;;;2.53;2.30;;;;;;;15.11;50.44;100442.44;5071773;28;43392;-89
2024/01/31 14:02:05;;;;;;;4.07;2.37;;;;;;;15.01;50.75;100436.78;5070809;28;39008;-88
2024/01/31 14:04:32;;;;;;;4.60;2.37;;;;;;;15.01;51.73;100426.09;5071494;28;41902;-89
2024/01/31 14:07:00;;;;;;;2.17;1.97;;;;;;;14.99;52.08;100427.13;5073109;28;42896;-89
2024/01/31 14:09:27;;;;;;;5.33;2.37;;;;;;;14.91;52.51;100416.03;5076363;28;41680;-89
2024/01/31 14:11:56;;;;;;;5.00;2.10;;;;;;;14.85;52.34;100408.34;5074745;28;38960;-90
2024/01/31 14:14:24;;;;;;;2.23;2.00;;;;;;;14.51;52.56;100351.53;5076308;28;40835;-91
2024/01/31 14:16:52;;;;;;;2.80;2.23;;;;;;;14.42;52.50;100354.72;5075498;28;41936;-91
2024/01/31 14:19:20;;;;;;;3.27;2.40;;;;;;;14.79;52.80;100414.91;5076149;28;42397;-90
2024/01/31 14:21:48;;;;;;;2.00;1.90;;;;;;;14.85;52.56;100427.00;5073424;28;39166;-90
2024/01/31 14:24:15;;;;;;;3.80;2.40;;;;;;;14.66;52.23;100427.19;5075351;28;41080;-89
2024/01/31 14:26:43;;;;;;;3.57;2.40;;;;;;;14.59;52.55;100429.28;5073824;28;42876;-90
2024/01/31 14:29:13;;;;;;;5.37;2.43;;;;;;;14.41;52.50;100414.31;5074472;28;43617;-88
2024/01/31 14:31:43;;;;;;;3.13;2.50;;;;;;;14.31;52.70;100408.56;5073987;28;38905;-88
2024/01/31 14:34:11;;;;;;;4.60;2.20;;;;;;;14.32;52.89;100425.44;5074010;28;42213;-88
2024/01/31 14:36:39;;;;;;;2.93;2.43;;;;;;;14.24;53.79;100427.63;5072359;28;41938;-86
2024/01/31 14:39:08;;;;;;;2.27;1.93;;;;;;;13.97;53.53;100404.13;5088770;28;42267;-87
2024/01/31 14:41:41;;;;;;;3.20;2.00;;;;;;;14.03;54.07;100426.94;5073842;28;39513;-86
2024/01/31 14:44:08;;;;;;;3.73;2.13;;;;;;;13.95;54.45;100416.69;5087237;28;41563;-91
2024/01/31 14:46:37;;;;;;;3.50;2.13;;;;;;;13.80;54.33;100409.47;5074922;28;44282;-90
2024/01/31 14:49:05;;;;;;;2.13;1.93;;;;;;;13.80;54.36;100413.94;5073859;28;43126;-90
2024/01/31 14:51:33;;;;;;;4.60;2.53;;;;;;;13.74;54.86;100416.91;5073639;28;39083;-86
2024/01/31 14:54:01;;;;;;;2.97;1.70;;;;;;;13.61;54.82;100412.19;5073361;28;43769;-86
2024/01/31 14:56:28;;;;;;;4.20;1.80;;;;;;;13.61;55.28;100416.66;5073999;28;43439;-88
2024/01/31 14:58:56;;;;;;;1.73;1.63;;;;;;;13.46;55.53;100399.69;5072344;28;41406;-87
2024/01/31 15:01:24;;;;;;;3.03;2.00;;;;;;;13.44;55.80;100420.19;5075123;28;39151;-85
2024/01/31 15:03:53;;;;;;;3.03;2.00;;;;;;;13.20;56.05;100395.63;5090278;28;43012;-89
2024/01/31 15:06:20;;;;;;;6.03;2.90;;;;;;;13.13;56.01;100395.94;5075353;28;41893;-90
2024/01/31 15:08:48;;;;;;;3.00;2.33;;;;;;;13.15;56.45;100397.66;5075306;28;42539;-89
2024/01/31 15:11:15;;;;;;;3.80;2.17;;;;;;;12.94;56.57;100380.03;5075520;28;38988;-87
2024/01/31 15:13:43;;;;;;;3.67;2.53;;;;;;;12.83;56.81;100375.22;5091708;28;40569;-87
2024/01/31 15:16:13;;;;;;;4.53;2.33;;;;;;;12.75;56.94;100371.19;5075192;28;42124;-89
2024/01/31 15:18:41;;;;;;;4.03;2.83;;;;;;;12.67;57.26;100379.53;5074008;28;41322;-86
2024/01/31 15:21:10;;;;;;;2.10;1.87;;;;;;;12.68;57.58;100383.06;5074989;28;39477;-86
2024/01/31 15:23:37;;;;;;;2.57;2.17;;;;;;;12.56;57.76;100376.53;5074689;28;41938;-87
2024/01/31 15:26:05;;;;;;;2.70;2.50;;;;;;;12.46;57.93;100373.44;5074656;28;42778;-87
2024/01/31 15:28:32;;;;;;;2.07;1.87;;;;;;;12.37;58.07;100365.00;5074121;28;44312;-89
2024/01/31 15:31:00;;;;;;;3.03;2.73;;;;;;;12.28;58.45;100365.44;5074170;28;39213;-87
2024/01/31 15:33:29;;;;;;;3.53;2.20;;;;;;;12.11;58.80;100358.22;5074705;28;40968;-85
2024/01/31 15:35:57;;;;;;;2.40;2.20;;;;;;;12.13;58.69;100372.28;5072835;28;41532;-88
2024/01/31 15:38:26;;;;;;;2.17;1.73;;;;;;;12.09;59.03;100366.25;5072712;28;40970;-89
2024/01/31 15:40:53;;;;;;;2.13;1.93;;;;;;;12.03;58.86;100363.00;5074033;28;38744;-90
2024/01/31 15:43:21;;;;;;;2.93;1.90;;;;;;;12.06;59.31;100382.31;5073507;28;42539;-89
2024/01/31 15:45:49;;;;;;;3.33;1.57;;;;;;;11.88;59.08;100361.88;5073567;28;42380;-89
2024/01/31 15:48:16;;;;;;;3.57;2.10;;;;;;;11.82;59.34;100363.03;5073242;28;41245;-91
2024/01/31 15:50:44;;;;;;;2.33;1.60;;;;;;;11.77;59.27;100354.38;5073206;28;42691;-89
2024/01/31 15:53:11;;;;;;;3.17;1.70;;;;;;;11.78;59.38;100372.03;5073352;28;42228;-89
2024/01/31 15:55:42;;;;;;;2.97;2.10;;;;;;;11.79;59.13;100376.44;5073296;28;43031;-90
2024/01/31 15:58:09;;;;;;;3.87;2.17;;;;;;;11.64;59.41;100352.28;5073468;28;42435;-89
2024/01/31 16:00:37;;;;;;;3.73;2.37;;;;;;;11.63;59.63;100358.53;5073957;28;38908;-89
2024/01/31 16:03:05;;;;;;;2.83;2.47;;;;;;;11.66;59.55;100367.22;5074288;28;42078;-90
2024/01/31 16:05:33;;;;;;;2.63;1.87;;;;;;;11.51;60.02;100351.94;5074400;28;43184;-90
2024/01/31 16:08:01;;;;;;;2.97;1.80;;;;;;;11.39;59.87;100339.22;5074732;28;42152;-86
2024/01/31 16:10:29;;;;;;;3.30;1.97;;;;;;;11.36;59.93;100334.06;5074814;28;39292;-88
2024/01/31 16:13:00;;;;;;;3.37;1.67;;;;;;;11.51;60.11;100378.50;5075084;28;41813;-90
2024/01/31 16:15:28;;;;;;;3.27;1.77;;;;;;;11.08;60.00;100311.34;5075016;28;42748;-89
2024/01/31 16:17:56;;;;;;;2.10;1.73;;;;;;;11.36;60.06;100369.41;5091925;28;41541;-88
2024/01/31 16:20:26;;;;;;;2.20;1.60;;;;;;;11.33;60.45;100358.06;5074389;28;40614;-88
2024/01/31 16:22:56;;;;;;;4.20;2.73;;;;;;;11.06;60.53;100323.78;5073295;28;43392;-88
2024/01/31 16:25:24;;;;;;;3.00;2.33;;;;;;;11.23;60.73;100354.94;5073068;28;42509;-88
2024/01/31 16:28:02;;;;;;;3.63;2.33;;;;;;;11.11;60.71;100337.72;5074009;28;41466;-86
2024/01/31 16:37:51;;;;;;;4.40;2.30;;;;;;;10.63;60.87;100270.81;5034228;28;43822;-88
2024/01/31 16:41:50;;;;;;;2.80;1.90;;;;;;;10.64;61.08;100280.47;5075641;28;43314;-89
2024/01/31 16:48:14;;;;;;;2.93;2.07;;;;;;;10.90;61.53;100362.44;4994019;28;41239;-87
2024/01/31 16:54:17;;;;;;;5.30;2.00;;;;;;;10.42;61.99;100278.66;5074428;28;44284;-87
2024/01/31 16:56:45;;;;;;;2.20;2.00;;;;;;;10.83;62.39;100358.31;5072734;28;39247;-87
2024/01/31 16:59:15;;;;;;;4.40;2.37;;;;;;;10.28;62.75;100258.94;5074118;28;42294;-87
2024/01/31 17:01:44;;;;;;;2.90;2.50;;;;;;;10.69;62.79;100335.00;5072706;28;41568;-87
2024/01/31 17:04:13;;;;;;;3.40;2.17;;;;;;;10.45;62.77;100293.59;5074021;28;41481;-87
2024/01/31 17:06:41;;;;;;;3.03;2.20;;;;;;;10.51;63.31;100308.38;5074282;28;38835;-87
2024/01/31 17:09:09;;;;;;;4.17;2.70;;;;;;;10.58;63.49;100325.75;5074626;28;42633;-87
2024/01/31 17:11:36;;;;;;;4.40;2.87;;;;;;;10.57;63.68;100324.88;5074629;28;41929;-86
2024/01/31 17:14:04;;;;;;;4.53;2.37;;;;;;;10.63;63.56;100329.09;5074648;28;41315;-86
2024/01/31 17:16:32;;;;;;;4.67;3.23;;;;;;;10.56;63.75;100311.69;5091501;28;41435;-87
2024/01/31 17:19:04;;;;;;;2.87;2.40;;;;;;;10.40;63.74;100288.44;5075305;28;42379;-86
2024/01/31 17:21:42;;;;;;;5.43;3.13;;;;;;;10.61;64.15;100321.22;5073887;28;42761;-85
2024/01/31 17:24:10;;;;;;;5.73;3.50;;;;;;;10.32;63.85;100272.00;5074201;28;42246;-86
2024/01/31 17:26:41;;;;;;;8.27;3.40;;;;;;;10.12;64.21;100242.78;5074723;28;40288;-87
2024/01/31 17:29:09;;;;;;;5.40;3.30;;;;;;;10.54;63.90;100308.25;5074676;28;40618;-87
2024/01/31 17:31:36;;;;;;;5.63;3.33;;;;;;;10.53;64.16;100311.81;5074565;28;43182;-87
2024/01/31 17:34:08;;;;;;;6.67;4.37;;;;;;;10.52;64.67;100307.44;5091161;28;42296;-86
2024/01/31 17:36:37;;;;;;;6.23;3.83;;;;;;;10.52;65.01;100310.94;5074512;28;38732;-86
2024/01/31 17:39:05;;;;;;;8.60;5.13;;;;;;;10.47;65.62;100296.19;5074150;28;40842;-86
2024/01/31 17:42:01;;;;;;;6.63;4.30;;;;;;;10.00;66.51;100217.63;5074313;28;44234;-86
2024/01/31 17:44:45;;;;;;;6.63;3.87;;;;;;;10.31;68.43;100264.13;4978347;28;42405;-86
2024/01/31 17:50:48;;;;;;;6.87;4.60;;;;;;;10.27;70.01;100251.91;5068969;28;42568;-86
2024/01/31 18:00:27;;;;;;;4.50;4.10;;;;;;;10.11;70.27;100213.72;4978264;28;39161;-86
2024/01/31 18:07:12;;;;;;;5.17;4.13;;;;;;;10.08;70.59;100243.81;4954886;28;41817;-86
2024/01/31 18:09:44;;;;;;;4.97;4.23;;;;;;;10.12;70.81;100247.19;4991324;28;41085;-86
2024/01/31 18:12:12;;;;;;;5.23;4.07;;;;;;;9.70;70.54;100187.91;5077794;28;38883;-86
2024/01/31 18:14:40;;;;;;;5.27;4.00;;;;;;;9.82;71.14;100207.75;5098570;27;40573;-86
2024/01/31 18:17:07;;;;;;;5.90;4.10;;;;;;;9.75;70.83;100200.09;5098868;27;41970;-85
2024/01/31 18:19:35;;;;;;;5.17;4.00;;;;;;;9.97;70.95;100238.06;5098543;27;41198;-84
2024/01/31 18:22:03;;;;;;;4.43;3.30;;;;;;;9.92;70.81;100232.06;5115788;27;39350;-86
2024/01/31 18:24:31;;;;;;;5.00;4.07;;;;;;;9.86;71.76;100219.94;5101145;27;42332;-86
2024/01/31 18:27:00;;;;;;;5.47;3.90;;;;;;;9.92;72.35;100224.13;5100653;27;44423;-85
2024/01/31 18:29:29;;;;;;;7.47;4.33;;;;;;;9.69;72.95;100180.03;5098879;27;42239;-87
2024/01/31 18:31:58;;;;;;;5.30;4.50;;;;;;;9.57;73.89;100148.75;5100244;27;40520;-86
2024/01/31 18:34:25;;;;;;;6.80;4.80;;;;;;;9.61;75.30;100151.22;5098120;27;40955;-87
2024/01/31 18:36:54;;;;;;;7.17;5.03;;;;;;;9.78;76.39;100169.06;5099201;27;41971;-87
2024/01/31 18:39:22;;;;;;;7.07;4.63;;;;;;;9.68;76.42;100158.00;5099805;27;41504;-86
2024/01/31 18:41:50;;;;;;;4.87;4.13;;;;;;;9.75;75.94;100178.94;5099790;27;39117;-86
2024/01/31 18:44:19;;;;;;;7.47;6.17;;;;;;;9.78;77.01;100178.78;5117104;27;41665;-86
2024/01/31 18:46:46;;;;;;;9.57;6.17;;;;;;;9.88;77.40;100190.78;5115183;27;44231;-86
2024/01/31 18:49:16;;;;;;;7.00;5.13;;;;;;;9.59;77.47;100126.63;5116446;27;43088;-86
2024/01/31 18:51:45;;;;;;;8.30;5.97;;;;;;;9.77;77.95;100151.47;5099739;27;40927;-86
2024/01/31 18:54:12;;;;;;;8.97;5.60;;;;;;;9.60;78.83;100120.41;5099079;27;40826;-86
2024/01/31 18:56:40;;;;;;;8.77;4.80;;;;;;;9.72;78.28;100159.59;5099477;27;42890;-86
2024/01/31 18:59:08;;;;;;;5.43;4.83;;;;;;;9.78;77.79;100174.38;5087870;28;42710;-86
2024/01/31 19:01:37;;;;;;;7.93;5.10;;;;;;;9.78;77.36;100170.84;5095462;28;39729;-86
2024/01/31 19:04:05;;;;;;;8.60;5.20;;;;;;;9.59;77.03;100120.47;5078933;28;40677;-86
2024/01/31 19:06:33;;;;;;;6.47;4.87;;;;;;;9.82;77.00;100148.66;5097151;28;42773;-86
2024/01/31 19:09:00;;;;;;;6.23;4.83;;;;;;;9.85;76.94;100152.06;5097263;28;42334;-86
2024/01/31 19:11:28;;;;;;;7.47;4.87;;;;;;;9.89;76.43;100158.09;5079830;28;39278;-87
2024/01/31 19:14:02;;;;;;;6.27;4.60;;;;;;;9.72;76.29;100133.16;5080079;28;42573;-86
2024/01/31 19:16:30;;;;;;;5.07;4.10;;;;;;;10.01;76.55;100176.16;5077903;28;42390;-87
2024/01/31 19:19:03;;;;;;;6.80;4.57;;;;;;;9.82;76.63;100143.38;5099160;27;42551;-86
2024/01/31 19:21:31;;;;;;;6.33;4.47;;;;;;;9.89;75.90;100156.28;5100390;27;38895;-86
2024/01/31 19:23:58;;;;;;;5.17;4.40;;;;;;;9.89;76.25;100156.28;5100365;27;42065;-87
2024/01/31 19:26:26;;;;;;;8.47;5.13;;;;;;;9.83;76.20;100150.41;5099939;27;42814;-85
2024/01/31 19:28:54;;;;;;;5.73;4.40;;;;;;;9.85;76.06;100169.72;5097690;27;42328;-86
2024/01/31 19:31:21;;;;;;;5.63;4.13;;;;;;;9.62;75.54;100147.66;5115028;28;40873;-85
2024/01/31 19:33:49;;;;;;;6.10;4.27;;;;;;;9.73;75.77;100156.03;5096407;28;41632;-86
2024/01/31 19:36:22;;;;;;;5.03;3.93;;;;;;;9.88;75.54;100177.56;5077636;28;43262;-84
2024/01/31 19:38:52;;;;;;;5.07;3.90;;;;;;;9.88;75.47;100173.13;5077972;28;41481;-86
2024/01/31 19:41:25;;;;;;;5.77;3.40;;;;;;;9.54;75.39;100133.84;5077515;28;40315;-84
2024/01/31 19:43:53;;;;;;;3.77;3.37;;;;;;;9.68;75.12;100150.06;5077898;28;40776;-84
2024/01/31 19:46:22;;;;;;;5.83;3.53;;;;;;;9.62;74.98;100126.50;5093737;28;42672;-84
2024/01/31 19:48:49;;;;;;;4.53;3.97;;;;;;;9.87;74.69;100162.59;5077690;28;41692;-85
2024/01/31 19:51:19;;;;;;;5.77;3.73;;;;;;;10.01;74.58;100181.44;5094392;28;40596;-84
